Stations météo

Publicité
Embrun, France (7591): Température de l'air & dewpoint: 18.01.2021 07:00:00 - 24.01.2021 07:00:00 (CET)Embrun, France (7591): Température de l'air 5cm: 18.01.2021 07:00:00 - 24.01.2021 07:00:00 (CET)Embrun, France (7591): Température de l'air -20cm & Température de l'air -100cm: 18.01.2021 07:00:00 - 24.01.2021 07:00:00 (CET)Embrun, France (7591): Vitesse du vent & gusts: 18.01.2021 07:00:00 - 24.01.2021 07:00:00 (CET)Embrun, France (7591): Direction du vent: 18.01.2021 07:00:00 - 24.01.2021 07:00:00 (CET)Embrun, France (7591): visibility: 18.01.2021 07:00:00 - 24.01.2021 07:00:00 (CET)Embrun, France (7591): Ensoleillement: 18.01.2021 07:00:00 - 24.01.2021 07:00:00 (CET)Embrun, France (7591): Quantités de précipitations: 18.01.2021 07:00:00 - 24.01.2021 07:00:00 (CET)
Date & Time tt [°C] td [°C] tt 5cm [°C] tt -20cm [°C] tt -100cm [°C] ff [km/h] ff [knt] fx [km/h] fx [knt] dd vv [km] sd [min] rr [mm]
24.01.2021 07:00:00 -0,3 -2,8 -1,7 2,7 5,3 5 3 26 14 NNE 20 0 0,0
24.01.2021 06:00:00 0,6 -1,5 -0,7 2,7 5,2 16 8 24 13 NE 20 0 0,0
24.01.2021 05:00:00 -0,3 -0,7 -0,6 2,7 5,3 2 1 5 3 E 19 0 0,0
24.01.2021 04:00:00 -0,2 -0,6 -0,3 2,7 5,3 3 2 10 6 NE 16 0 0,0
24.01.2021 03:00:00 0,0 -0,4 -0,1 2,7 5,3 2 1 14 8 N 19 0 0,0
24.01.2021 02:00:00 0,3 -0,1 -0,1 2,7 5,3 0 0 11 6 N 7 0 0,0
24.01.2021 01:00:00 0,5 -0,2 0,0 2,7 5,3 6 4 17 9 WSW 20 0 0,0
24.01.2021 00:00:00 0,9 -0,1 0,0 2,7 5,3 12 6 19 10 SSW 20 0 0,0
23.01.2021 23:00:00 0,8 -0,1 0,0 2,6 5,3 10 5 17 9 SSW 20 0 0,8
23.01.2021 22:00:00 0,8 -0,1 -0,1 2,7 5,3 11 6 22 12 S 13 0 0,0
23.01.2021 21:00:00 0,3 -0,3 -0,1 2,7 5,4 7 4 18 10 S 20 0 0,6
23.01.2021 20:00:00 0,2 -0,2 -0,2 2,6 5,3 9 5 16 9 SSW 7 0 0,2
23.01.2021 19:00:00 0,0 -0,4 -0,3 2,7 5,4 8 4 16 8 S 20 0 1,0
23.01.2021 18:00:00 0,0 -0,4 -0,1 2,6 5,3 9 5 16 9 S 2,7 0 0,8
23.01.2021 17:00:00 0,0 -0,4 -0,1 2,6 5,3 10 5 19 10 S 1,1 0 1,2
23.01.2021 16:00:00 -0,1 -0,5 0,0 2,6 5,3 7 4 17 9 S 1,2 0 1,0
23.01.2021 15:00:00 -0,1 -0,8 0,0 2,6 5,3 9 5 21 11 S 1,5 0 0,6
23.01.2021 14:00:00 2,4 -3,5 2,4 2,6 5,3 11 6 22 12 SW 15 0 0,0
23.01.2021 13:00:00 3,3 -4,0 5,8 2,6 5,3 9 5 17 9 S 20 3 0,0
23.01.2021 12:00:00 3,2 -2,5 12,5 2,6 5,3 4 2 10 5 ENE 20 58 0,0
23.01.2021 11:00:00 1,8 -2,3 8,5 2,6 5,4 6 3 10 5 E 20 60 0,0
23.01.2021 10:00:00 0,2 -3,2 -4,1 2,6 5,4 0 0 15 8 N 20 36 0,0
23.01.2021 09:00:00 -2,5 -4,2 -5,1 2,6 5,4 11 6 23 12 NE 20 0 0,0
23.01.2021 08:00:00 -2,2 -4,4 -5,9 2,6 5,4 5 3 10 5 N 20 0 0,0
23.01.2021 07:00:00 -2,0 -3,7 -6,0 2,6 5,4 5 3 9 5 N 20 0 0,0
23.01.2021 06:00:00 -1,6 -2,7 -4,7 2,6 5,4 3 2 8 4 NE 15 0 0,0
23.01.2021 05:00:00 -0,9 -3,1 -3,8 2,6 5,4 5 3 8 5 N 17 0 0,0
23.01.2021 04:00:00 0,1 -3,5 -2,6 2,6 5,4 2 1 8 4 WSW 20 0 0,0
23.01.2021 03:00:00 0,5 -1,6 -0,9 2,5 5,4 0 0 11 6 N 20 0 0,0
23.01.2021 02:00:00 0,7 -1,2 -0,4 2,5 5,4 3 2 8 5 NNW 20 0 0,0
23.01.2021 01:00:00 0,7 -1,2 0,0 2,5 5,4 4 2 8 4 NNE 20 0 0,0
23.01.2021 00:00:00 1,3 -0,9 0,0 2,5 5,4 0 0 9 5 N 12 0 0,0
22.01.2021 23:00:00 1,5 -1,1 0,3 2,5 5,4 0 0 14 8 N 20 0 0,0
22.01.2021 22:00:00 2,2 0,9 1,6 2,4 5,4 3 1 10 6 S 14 0 1,0
22.01.2021 21:00:00 2,4 1,8 1,9 2,4 5,4 3 1 14 8 N 12 0 0,6
22.01.2021 20:00:00 3,1 1,3 1,7 2,4 5,4 9 5 23 13 SW 20 0 0,0
22.01.2021 19:00:00 2,4 0,9 1,6 2,4 5,4 9 5 36 19 NNE 20 0 0,0
22.01.2021 18:00:00 3,0 1,2 1,9 2,4 5,4 19 10 56 30 N 20 0 1,4
22.01.2021 17:00:00 3,2 1,7 2,3 2,3 5,4 21 11 42 23 N 5 0 2,2
22.01.2021 16:00:00 3,4 1,9 3,0 2,4 5,4 26 14 41 22 N 12 0 3,6
22.01.2021 15:00:00 4,5 3,0 3,8 2,3 5,4 21 12 37 20 N 7 0 3,3
22.01.2021 14:00:00 4,6 3,6 4,5 2,4 5,4 6 3 24 13 NNE 4,9 1 1,2
22.01.2021 13:00:00 5,4 4,2 4,5 2,3 5,4 15 8 23 13 NNE 18 0 1,4
22.01.2021 12:00:00 4,4 3,7 4,5 2,3 5,4 6 3 13 7 ENE 6 0 2,0
22.01.2021 11:00:00 4,3 2,6 3,9 2,3 5,4 2 1 9 5 NNE 18 0 0,2
22.01.2021 10:00:00 3,9 2,3 2,8 2,3 5,4 4 2 13 7 SW 20 0 0,0
22.01.2021 09:00:00 4,1 2,3 2,1 2,3 5,4 8 4 28 15 E 20 0 0,0
22.01.2021 08:00:00 3,3 2,0 1,9 2,3 5,4 7 4 19 10 NNE 20 0 0,0
22.01.2021 07:00:00 3,2 2,3 1,3 2,3 5,4 11 6 19 10 NNE 20 0 0,0
22.01.2021 06:00:00 2,1 1,5 0,6 2,3 5,4 8 4 13 7 NE 11 0 0,0
22.01.2021 05:00:00 2,7 2,1 -0,4 2,3 5,5 2 1 7 4 ESE 14 0 0,0
22.01.2021 04:00:00 3,5 2,8 0,2 2,2 5,5 0 0 9 5 N 20 0 0,0
22.01.2021 03:00:00 4,5 3,2 2,5 2,3 5,5 10 5 14 7 SSW 20 0 0,0
22.01.2021 02:00:00 5,0 3,5 3,4 2,3 5,5 5 3 13 7 W 20 0 0,0
22.01.2021 01:00:00 5,3 3,6 4,3 2,3 5,5 6 3 24 13 SSW 20 0 0,4
22.01.2021 00:00:00 6,2 3,5 4,7 2,2 5,5 8 5 23 12 SSW 19 0 0,0
21.01.2021 23:00:00 6,8 2,7 5,0 2,2 5,5 10 6 26 14 SSW 20 0 0,0
21.01.2021 22:00:00 6,6 2,7 4,1 2,2 5,5 8 4 19 10 SSW 20 0 0,0
21.01.2021 21:00:00 6,1 3,1 3,9 2,2 5,5 5 3 17 9 W 19 0 0,0
21.01.2021 20:00:00 6,1 3,4 3,9 2,2 5,5 4 2 19 11 SSW 20 0 0,2
21.01.2021 19:00:00 5,1 1,9 2,3 2,2 5,5 7 4 17 9 SW 16 0 0,0
21.01.2021 18:00:00 3,7 1,2 2,2 2,2 5,5 3 2 8 5 W 20 0 0,0
21.01.2021 17:00:00 3,7 0,0 3,2 2,2 5,5 5 3 10 5 NE 20 0 0,0
21.01.2021 16:00:00 4,3 -0,1 4,8 2,2 5,5 5 3 13 7 ENE 20 0 0,0
21.01.2021 15:00:00 5,0 0,0 8,4 2,1 5,5 5 3 16 8 NE 20 0 0,0
21.01.2021 14:00:00 4,5 -0,3 6,8 2,1 5,5 8 4 19 10 NNE 20 0 0,0
21.01.2021 13:00:00 3,8 -0,4 5,6 2,2 5,5 12 6 23 12 NNE 20 0 0,0
21.01.2021 12:00:00 3,4 -0,8 4,7 2,2 5,5 11 6 23 12 NNE 20 0 0,0
21.01.2021 11:00:00 2,9 -0,9 2,4 2,2 5,5 15 8 27 14 NNE 20 0 0,0
21.01.2021 10:00:00 2,1 -1,2 1,7 2,2 5,5 12 7 25 13 NNE 20 0 0,0
21.01.2021 09:00:00 2,1 -1,3 0,8 2,2 5,5 14 8 28 15 NNE 20 0 0,0
21.01.2021 08:00:00 2,0 -1,4 0,2 2,1 5,5 14 8 32 18 NNE 20 0 0,0
21.01.2021 07:00:00 1,8 -1,3 0,5 2,1 5,5 13 7 29 16 N 20 0 0,0
21.01.2021 06:00:00 1,4 -0,8 0,4 2,1 5,5 12 7 26 14 NE 20 0 0,0
21.01.2021 05:00:00 1,8 -1,1 0,4 2,2 5,5 17 9 35 19 N 20 0 0,0
21.01.2021 04:00:00 1,7 -0,7 0,5 2,1 5,5 26 14 43 23 N 20 0 0,0
21.01.2021 03:00:00 2,4 0,0 1,2 2,2 5,6 23 12 39 21 N 18 0 0,2
21.01.2021 02:00:00 3,4 -4,1 2,5 2,2 5,6 13 7 31 17 NNE 20 0 0,0
21.01.2021 01:00:00 3,3 -3,5 0,3 2,2 5,6 16 9 30 16 NNE 20 0 0,0
21.01.2021 00:00:00 2,1 -2,6 0,3 2,2 5,6 3 2 16 9 WNW 20 0 0,0
20.01.2021 23:00:00 2,8 -2,3 0,7 2,1 5,5 8 5 16 9 NNE 20 0 0,0
20.01.2021 22:00:00 2,9 -1,8 0,7 2,2 5,6 5 3 13 7 NNE 20 0 0,0
20.01.2021 21:00:00 3,6 -1,8 0,0 2,2 5,6 6 4 9 5 NNW 20 0 0,0
20.01.2021 20:00:00 4,2 -1,6 1,0 2,2 5,6 3 1 8 4 NW 20 0 0,0
20.01.2021 19:00:00 4,8 -1,9 1,7 2,2 5,6 5 3 10 5 N 20 0 0,0
20.01.2021 18:00:00 5,7 -1,9 3,4 2,2 5,6 6 3 20 11 WNW 20 0 0,0
20.01.2021 17:00:00 6,9 -1,8 5,9 2,2 5,6 9 5 22 12 S 20 0 0,0
20.01.2021 16:00:00 9,1 -1,3 9,5 2,2 5,6 14 7 28 15 S 20 56 0,0
20.01.2021 15:00:00 9,8 -1,6 12,2 2,2 5,6 14 8 27 15 S 20 60 0,0
20.01.2021 14:00:00 9,6 -1,2 15,4 2,2 5,6 14 7 26 14 S 20 60 0,0
20.01.2021 13:00:00 6,4 -5,6 16,4 2,2 5,6 8 4 16 8 SW 20 60 0,0
20.01.2021 12:00:00 4,6 -6,6 14,3 2,2 5,6 8 4 26 14 ENE 20 60 0,0
20.01.2021 11:00:00 2,3 -8,2 10,4 2,2 5,6 13 7 26 14 NNE 20 60 0,0
20.01.2021 10:00:00 0,5 -9,0 0,0 2,2 5,6 13 7 26 14 NE 20 46 0,0
20.01.2021 09:00:00 -0,6 -9,3 -1,1 2,2 5,6 15 8 37 20 NNE 20 0 0,0
20.01.2021 08:00:00 -0,7 -9,6 -1,3 2,2 5,6 19 11 43 23 NNE 20 0 0,0
20.01.2021 07:00:00 -0,9 -9,5 -2,3 2,2 5,6 21 11 41 22 N 20 0 0,0
20.01.2021 06:00:00 -1,8 -9,4 -3,1 2,2 5,6 14 7 32 18 NNE 20 0 0,0
20.01.2021 05:00:00 -2,6 -8,9 -3,7 2,2 5,6 11 6 26 14 NNE 20 0 0,0
20.01.2021 04:00:00 -3,1 -9,4 -6,0 2,2 5,6 12 7 29 15 NNE 20 0 0,0
20.01.2021 03:00:00 -4,1 -9,5 -7,5 2,2 5,6 13 7 23 12 NE 20 0 0,0
20.01.2021 02:00:00 -3,6 -9,4 -8,4 2,2 5,6 6 3 12 6 NE 20 0 0,0
20.01.2021 01:00:00 -3,2 -9,7 -6,4 2,2 5,6 6 3 15 8 NE 20 0 0,0
20.01.2021 00:00:00 -2,5 -9,6 -6,2 2,3 5,7 5 3 18 10 NE 20 0 0,0
19.01.2021 23:00:00 -1,6 -9,5 -4,8 2,2 5,7 11 6 19 11 NNE 20 0 0,0
19.01.2021 22:00:00 -1,5 -9,2 -4,6 2,3 5,7 11 6 26 14 NNE 20 0 0,0
19.01.2021 21:00:00 -1,5 -9,2 -4,6 2,2 5,7 8 4 21 12 NNE 20 0 0,0
19.01.2021 20:00:00 -1,1 -8,5 -5,1 2,3 5,7 9 5 16 9 NNE 20 0 0,0
19.01.2021 19:00:00 0,3 -8,4 -5,5 2,2 5,6 6 3 10 5 NNE 20 0 0,0
19.01.2021 18:00:00 1,0 -8,5 -4,4 2,3 5,7 0 0 7 4 N 20 0 0,0
19.01.2021 17:00:00 4,9 -10,1 2,1 2,3 5,7 5 3 10 5 S 20 60 0,0
19.01.2021 16:00:00 6,6 -10,2 11,0 2,3 5,7 5 3 12 7 S 20 60 0,0
19.01.2021 15:00:00 7,1 -9,8 14,4 2,3 5,6 5 3 13 7 SW 20 60 0,0
19.01.2021 14:00:00 5,9 -10,4 15,1 2,3 5,7 5 3 11 6 SSE 20 60 0,0
19.01.2021 13:00:00 4,7 -9,9 15,4 2,3 5,7 4 2 10 5 S 20 60 0,0
19.01.2021 12:00:00 2,9 -9,7 13,6 2,3 5,7 9 5 21 12 ENE 20 60 0,0
19.01.2021 11:00:00 -0,2 -10,2 3,7 2,3 5,7 13 7 29 16 ENE 20 50 0,0
19.01.2021 10:00:00 -2,3 -9,7 -6,4 2,3 5,7 2 1 15 8 ENE 20 16 0,0
19.01.2021 09:00:00 -4,2 -11,7 -7,5 2,3 5,7 9 5 18 10 NNE 20 0 0,0
19.01.2021 08:00:00 -4,5 -11,7 -7,9 2,3 5,7 12 7 22 12 ENE 20 0 0,0
19.01.2021 07:00:00 -5,0 -11,8 -10,6 2,3 5,7 9 5 16 9 NE 20 0 0,0
19.01.2021 06:00:00 -5,8 -11,9 -10,2 2,4 5,7 0 0 12 6 N 20 0 0,0
19.01.2021 05:00:00 -5,9 -11,4 -10,2 2,4 5,7 2 1 16 8 NNE 20 0 0,0
19.01.2021 04:00:00 -4,9 -11,7 -10,2 2,4 5,7 9 5 14 8 NE 20 0 0,0
19.01.2021 03:00:00 -5,7 -11,0 -9,9 2,4 5,7 3 1 10 6 SE 20 0 0,0
19.01.2021 02:00:00 -5,1 -10,7 -9,4 2,4 5,7 0 0 13 7 N 20 0 0,0
19.01.2021 01:00:00 -5,1 -10,1 -8,8 2,4 5,7 3 1 14 7 N 20 0 0,0
19.01.2021 00:00:00 -4,2 -10,2 -8,7 2,4 5,7 14 7 28 15 NE 20 0 0,0
18.01.2021 23:00:00 -4,4 -8,9 -8,9 2,4 5,8 5 3 9 5 N 17 0 0,0
18.01.2021 22:00:00 -4,0 -9,0 -8,8 2,4 5,8 4 2 10 6 NNE 20 0 0,0
18.01.2021 21:00:00 -3,6 -8,1 -8,3 2,4 5,7 0 0 6 3 N 20 0 0,0
18.01.2021 20:00:00 -2,4 -7,9 -8,2 2,4 5,8 3 1 6 3 NNE 19 0 0,0
18.01.2021 19:00:00 -1,6 -7,5 -7,2 2,4 5,8 3 1 5 3 N 19 0 0,0
18.01.2021 18:00:00 -0,2 -8,6 -5,6 2,4 5,8 4 2 6 4 NE 20 0 0,0
18.01.2021 17:00:00 3,4 -8,6 0,1 2,4 5,8 3 1 11 6 S 20 58 0,0
18.01.2021 16:00:00 4,4 -8,7 7,2 2,4 5,8 5 3 11 6 S 20 49 0,0
18.01.2021 15:00:00 4,4 -8,7 9,2 2,4 5,8 5 3 12 7 S 20 60 0,0
18.01.2021 14:00:00 3,7 -10,0 12,3 2,4 5,8 5 3 16 9 S 20 60 0,0
18.01.2021 13:00:00 2,8 -10,8 11,5 2,4 5,8 7 4 15 8 S 20 60 0,0
18.01.2021 12:00:00 1,6 -11,6 9,1 2,4 5,8 4 2 10 6 ESE 20 60 0,0
18.01.2021 11:00:00 -0,5 -9,4 4,3 2,5 5,8 3 2 9 5 SSE 20 60 0,0
18.01.2021 10:00:00 -3,6 -9,2 -9,2 2,5 5,8 3 2 11 6 E 20 34 0,0
18.01.2021 09:00:00 -6,8 -11,0 -10,6 2,5 5,8 3 1 6 3 SW 20 0 0,0
18.01.2021 08:00:00 -6,5 -11,1 -10,6 2,5 5,8 0 0 8 5 N 20 0 0,0
18.01.2021 07:00:00 -5,9 -10,9 -10,4 2,5 5,8 2 1 11 6 N 20 0 0,0

tt = Température de l'air
td = dewpoint
tt 5cm = Température de l'air 5cm
tt -20cm = Température de l'air -20cm
tt -100cm = Température de l'air -100cm
ff = Vitesse du vent
fx = gusts
dd = Direction du vent
vv = visibility
sd = Ensoleillement
rr = Quantités de précipitations

stations d'obs. à proximité